sensor_id;sensor_type;location;lat;lon;timestamp;pressure;altitude;pressure_sealevel;temperature;humidity
49063;BME280;34876;51.464;-0.150;2023-05-02T00:00:22;102164.68;;;19.53;42.49
49063;BME280;34876;51.464;-0.150;2023-05-02T00:03:41;102168.92;;;19.55;42.49
49063;BME280;34876;51.464;-0.150;2023-05-02T00:06:09;102173.77;;;19.54;42.50
49063;BME280;34876;51.464;-0.150;2023-05-02T00:08:41;102178.31;;;19.53;42.56
49063;BME280;34876;51.464;-0.150;2023-05-02T00:11:11;102177.81;;;19.56;42.47
49063;BME280;34876;51.464;-0.150;2023-05-02T00:13:45;102178.82;;;19.55;42.50
49063;BME280;34876;51.464;-0.150;2023-05-02T00:16:14;102180.63;;;19.57;42.48
49063;BME280;34876;51.464;-0.150;2023-05-02T00:18:44;102181.67;;;19.56;42.48
49063;BME280;34876;51.464;-0.150;2023-05-02T00:21:14;102182.08;;;19.55;42.50
49063;BME280;34876;51.464;-0.150;2023-05-02T00:23:43;102182.22;;;19.47;42.71
49063;BME280;34876;51.464;-0.150;2023-05-02T00:26:13;102175.12;;;19.41;42.89
49063;BME280;34876;51.464;-0.150;2023-05-02T00:28:41;102173.54;;;19.51;42.62
49063;BME280;34876;51.464;-0.150;2023-05-02T00:31:10;102172.15;;;19.42;42.89
49063;BME280;34876;51.464;-0.150;2023-05-02T00:33:39;102170.13;;;19.45;42.80
49063;BME280;34876;51.464;-0.150;2023-05-02T00:36:13;102169.84;;;19.51;42.66
49063;BME280;34876;51.464;-0.150;2023-05-02T00:38:42;102173.73;;;19.52;42.66
49063;BME280;34876;51.464;-0.150;2023-05-02T00:41:24;102175.79;;;19.24;43.60
49063;BME280;34876;51.464;-0.150;2023-05-02T00:43:54;102178.07;;;19.41;42.93
49063;BME280;34876;51.464;-0.150;2023-05-02T00:46:23;102178.38;;;19.42;42.91
49063;BME280;34876;51.464;-0.150;2023-05-02T00:48:53;102180.34;;;19.40;42.96
49063;BME280;34876;51.464;-0.150;2023-05-02T00:51:21;102183.37;;;19.45;42.85
49063;BME280;34876;51.464;-0.150;2023-05-02T00:53:51;102186.69;;;19.48;42.80
49063;BME280;34876;51.464;-0.150;2023-05-02T00:56:21;102187.79;;;19.50;42.75
49063;BME280;34876;51.464;-0.150;2023-05-02T00:58:50;102189.74;;;19.49;42.78
49063;BME280;34876;51.464;-0.150;2023-05-02T01:01:35;102190.03;;;19.27;43.34
49063;BME280;34876;51.464;-0.150;2023-05-02T01:04:25;102191.90;;;19.16;43.81
49063;BME280;34876;51.464;-0.150;2023-05-02T01:07:21;102195.81;;;19.22;44.88
49063;BME280;34876;51.464;-0.150;2023-05-02T01:10:03;102199.85;;;19.18;43.69
49063;BME280;34876;51.464;-0.150;2023-05-02T01:12:41;102202.50;;;18.98;44.58
49063;BME280;34876;51.464;-0.150;2023-05-02T01:15:16;102201.76;;;19.29;43.41
49063;BME280;34876;51.464;-0.150;2023-05-02T01:17:50;102201.60;;;19.34;43.27
49063;BME280;34876;51.464;-0.150;2023-05-02T01:20:22;102202.17;;;19.22;43.63
49063;BME280;34876;51.464;-0.150;2023-05-02T01:22:57;102214.61;;;18.72;44.83
49063;BME280;34876;51.464;-0.150;2023-05-02T01:25:32;102213.44;;;19.01;44.13
49063;BME280;34876;51.464;-0.150;2023-05-02T01:28:19;102207.98;;;19.30;43.40
49063;BME280;34876;51.464;-0.150;2023-05-02T01:30:53;102205.37;;;19.23;44.00
49063;BME280;34876;51.464;-0.150;2023-05-02T01:33:24;102206.88;;;19.26;43.48
49063;BME280;34876;51.464;-0.150;2023-05-02T01:36:02;102212.69;;;19.24;43.58
49063;BME280;34876;51.464;-0.150;2023-05-02T01:38:33;102209.79;;;19.25;43.81
49063;BME280;34876;51.464;-0.150;2023-05-02T01:41:04;102211.58;;;18.79;44.67
49063;BME280;34876;51.464;-0.150;2023-05-02T01:43:36;102214.82;;;18.94;44.42
49063;BME280;34876;51.464;-0.150;2023-05-02T01:46:12;102218.12;;;18.94;44.36
49063;BME280;34876;51.464;-0.150;2023-05-02T01:48:46;102221.72;;;19.27;43.56
49063;BME280;34876;51.464;-0.150;2023-05-02T01:51:19;102227.64;;;19.14;43.91
49063;BME280;34876;51.464;-0.150;2023-05-02T01:53:49;102231.20;;;19.29;43.46
49063;BME280;34876;51.464;-0.150;2023-05-02T01:56:21;102233.28;;;19.02;44.32
49063;BME280;34876;51.464;-0.150;2023-05-02T01:58:57;102236.25;;;18.77;45.45
49063;BME280;34876;51.464;-0.150;2023-05-02T02:01:34;102237.84;;;19.23;43.60
49063;BME280;34876;51.464;-0.150;2023-05-02T02:04:05;102245.23;;;18.98;44.22
49063;BME280;34876;51.464;-0.150;2023-05-02T02:06:38;102248.11;;;19.28;43.49
49063;BME280;34876;51.464;-0.150;2023-05-02T02:09:07;102248.33;;;19.23;43.61
49063;BME280;34876;51.464;-0.150;2023-05-02T02:11:41;102244.09;;;18.98;44.23
49063;BME280;34876;51.464;-0.150;2023-05-02T02:14:16;102237.99;;;19.11;43.87
49063;BME280;34876;51.464;-0.150;2023-05-02T02:16:47;102238.43;;;19.26;43.52
49063;BME280;34876;51.464;-0.150;2023-05-02T02:19:19;102240.44;;;19.15;44.06
49063;BME280;34876;51.464;-0.150;2023-05-02T02:21:50;102249.00;;;18.98;44.92
49063;BME280;34876;51.464;-0.150;2023-05-02T02:24:21;102252.89;;;18.79;44.73
49063;BME280;34876;51.464;-0.150;2023-05-02T02:26:51;102252.28;;;19.21;43.64
49063;BME280;34876;51.464;-0.150;2023-05-02T02:29:21;102258.26;;;19.29;43.44
49063;BME280;34876;51.464;-0.150;2023-05-02T02:31:50;102265.60;;;19.14;43.78
49063;BME280;34876;51.464;-0.150;2023-05-02T02:34:20;102268.53;;;19.17;43.72
49063;BME280;34876;51.464;-0.150;2023-05-02T02:36:54;102272.30;;;19.24;43.58
49063;BME280;34876;51.464;-0.150;2023-05-02T02:39:37;102276.08;;;19.23;43.55
49063;BME280;34876;51.464;-0.150;2023-05-02T02:42:11;102274.70;;;19.29;43.42
49063;BME280;34876;51.464;-0.150;2023-05-02T02:44:51;102277.56;;;19.03;44.02
49063;BME280;34876;51.464;-0.150;2023-05-02T02:47:26;102280.77;;;18.74;44.76
49063;BME280;34876;51.464;-0.150;2023-05-02T02:50:09;102282.95;;;19.18;43.69
49063;BME280;34876;51.464;-0.150;2023-05-02T02:52:49;102284.81;;;18.83;44.52
49063;BME280;34876;51.464;-0.150;2023-05-02T02:55:29;102286.36;;;19.21;43.59
49063;BME280;34876;51.464;-0.150;2023-05-02T03:00:48;102296.42;;;19.26;43.49
49063;BME280;34876;51.464;-0.150;2023-05-02T03:03:19;102292.47;;;19.18;43.66
49063;BME280;34876;51.464;-0.150;2023-05-02T03:05:50;102297.24;;;19.31;43.33
49063;BME280;34876;51.464;-0.150;2023-05-02T03:08:19;102296.24;;;19.32;43.30
49063;BME280;34876;51.464;-0.150;2023-05-02T03:10:50;102296.99;;;19.32;43.29
49063;BME280;34876;51.464;-0.150;2023-05-02T03:13:20;102298.23;;;19.11;43.86
49063;BME280;34876;51.464;-0.150;2023-05-02T03:16:17;102298.87;;;19.00;44.09
49063;BME280;34876;51.464;-0.150;2023-05-02T03:18:53;102302.71;;;19.25;43.46
49063;BME280;34876;51.464;-0.150;2023-05-02T03:21:22;102305.69;;;19.27;43.41
49063;BME280;34876;51.464;-0.150;2023-05-02T03:23:51;102309.78;;;19.33;43.26
49063;BME280;34876;51.464;-0.150;2023-05-02T03:26:20;102309.86;;;19.33;43.24
49063;BME280;34876;51.464;-0.150;2023-05-02T03:28:49;102312.20;;;19.02;44.02
49063;BME280;34876;51.464;-0.150;2023-05-02T03:31:18;102313.22;;;19.25;43.47
49063;BME280;34876;51.464;-0.150;2023-05-02T03:33:48;102316.25;;;19.12;43.78
49063;BME280;34876;51.464;-0.150;2023-05-02T03:36:17;102319.30;;;19.27;43.40
49063;BME280;34876;51.464;-0.150;2023-05-02T03:38:46;102321.09;;;19.31;43.30
49063;BME280;34876;51.464;-0.150;2023-05-02T03:41:15;102325.50;;;19.30;43.36
49063;BME280;34876;51.464;-0.150;2023-05-02T03:43:44;102326.42;;;19.08;43.90
49063;BME280;34876;51.464;-0.150;2023-05-02T03:46:12;102327.34;;;19.09;43.93
49063;BME280;34876;51.464;-0.150;2023-05-02T03:48:42;102329.02;;;19.16;43.69
49063;BME280;34876;51.464;-0.150;2023-05-02T03:51:11;102327.93;;;19.03;43.99
49063;BME280;34876;51.464;-0.150;2023-05-02T03:53:40;102327.30;;;19.11;43.82
49063;BME280;34876;51.464;-0.150;2023-05-02T03:56:08;102323.25;;;19.15;43.69
49063;BME280;34876;51.464;-0.150;2023-05-02T03:58:37;102325.81;;;18.82;44.53
49063;BME280;34876;51.464;-0.150;2023-05-02T04:01:13;102328.82;;;19.11;43.80
49063;BME280;34876;51.464;-0.150;2023-05-02T04:03:42;102335.34;;;19.26;43.42
49063;BME280;34876;51.464;-0.150;2023-05-02T04:06:10;102342.64;;;18.97;44.14
49063;BME280;34876;51.464;-0.150;2023-05-02T04:08:40;102349.69;;;19.16;43.65
49063;BME280;34876;51.464;-0.150;2023-05-02T04:11:08;102352.29;;;19.17;43.70
49063;BME280;34876;51.464;-0.150;2023-05-02T04:13:37;102355.37;;;18.97;44.57
49063;BME280;34876;51.464;-0.150;2023-05-02T04:16:07;102353.05;;;19.23;43.49
49063;BME280;34876;51.464;-0.150;2023-05-02T04:18:37;102351.78;;;19.09;43.82
49063;BME280;34876;51.464;-0.150;2023-05-02T04:21:07;102355.28;;;19.01;43.99
49063;BME280;34876;51.464;-0.150;2023-05-02T04:23:36;102354.73;;;19.16;43.63
49063;BME280;34876;51.464;-0.150;2023-05-02T04:26:05;102351.05;;;19.26;43.39
49063;BME280;34876;51.464;-0.150;2023-05-02T04:28:34;102348.89;;;19.21;43.45
49063;BME280;34876;51.464;-0.150;2023-05-02T04:31:03;102349.83;;;19.24;43.44
49063;BME280;34876;51.464;-0.150;2023-05-02T04:33:34;102355.16;;;19.20;43.52
49063;BME280;34876;51.464;-0.150;2023-05-02T04:36:04;102360.39;;;19.26;43.34
49063;BME280;34876;51.464;-0.150;2023-05-02T04:38:34;102363.08;;;19.26;43.34
49063;BME280;34876;51.464;-0.150;2023-05-02T04:41:03;102363.21;;;19.24;43.40
49063;BME280;34876;51.464;-0.150;2023-05-02T04:43:33;102367.95;;;19.20;43.48
49063;BME280;34876;51.464;-0.150;2023-05-02T04:46:02;102377.73;;;18.99;44.95
49063;BME280;34876;51.464;-0.150;2023-05-02T04:48:30;102379.17;;;19.18;43.55
49063;BME280;34876;51.464;-0.150;2023-05-02T04:50:59;102386.29;;;18.67;44.83
49063;BME280;34876;51.464;-0.150;2023-05-02T04:53:29;102391.73;;;18.49;45.37
49063;BME280;34876;51.464;-0.150;2023-05-02T04:55:58;102396.37;;;19.05;43.96
49063;BME280;34876;51.464;-0.150;2023-05-02T04:58:27;102395.12;;;19.09;43.82
49063;BME280;34876;51.464;-0.150;2023-05-02T05:00:56;102400.83;;;18.79;44.66
49063;BME280;34876;51.464;-0.150;2023-05-02T05:03:25;102404.02;;;18.61;45.22
49063;BME280;34876;51.464;-0.150;2023-05-02T05:05:54;102410.51;;;18.91;44.35
49063;BME280;34876;51.464;-0.150;2023-05-02T05:08:23;102411.72;;;18.79;44.55
49063;BME280;34876;51.464;-0.150;2023-05-02T05:10:57;102421.47;;;17.73;47.59
49063;BME280;34876;51.464;-0.150;2023-05-02T05:13:26;102414.95;;;18.48;45.43
49063;BME280;34876;51.464;-0.150;2023-05-02T05:15:55;102416.28;;;18.89;44.34
49063;BME280;34876;51.464;-0.150;2023-05-02T05:18:24;102426.70;;;18.23;46.02
49063;BME280;34876;51.464;-0.150;2023-05-02T05:20:53;102421.81;;;18.88;44.40
49063;BME280;34876;51.464;-0.150;2023-05-02T05:23:22;102430.16;;;18.53;45.25
49063;BME280;34876;51.464;-0.150;2023-05-02T05:25:51;102428.87;;;18.97;44.15
49063;BME280;34876;51.464;-0.150;2023-05-02T05:28:20;102431.05;;;18.93;44.21
49063;BME280;34876;51.464;-0.150;2023-05-02T05:30:49;102434.63;;;18.94;44.20
49063;BME280;34876;51.464;-0.150;2023-05-02T05:33:19;102442.80;;;18.55;45.16
49063;BME280;34876;51.464;-0.150;2023-05-02T05:35:48;102449.74;;;18.48;45.96
49063;BME280;34876;51.464;-0.150;2023-05-02T05:38:17;102441.96;;;18.63;45.02
49063;BME280;34876;51.464;-0.150;2023-05-02T05:40:48;102441.15;;;18.91;44.28
49063;BME280;34876;51.464;-0.150;2023-05-02T05:43:16;102442.26;;;18.72;44.67
49063;BME280;34876;51.464;-0.150;2023-05-02T05:45:46;102460.93;;;18.23;46.00
49063;BME280;34876;51.464;-0.150;2023-05-02T05:48:16;102462.81;;;18.51;45.22
49063;BME280;34876;51.464;-0.150;2023-05-02T05:50:46;102461.65;;;18.81;44.47
49063;BME280;34876;51.464;-0.150;2023-05-02T05:53:15;102464.44;;;18.81;44.45
49063;BME280;34876;51.464;-0.150;2023-05-02T05:55:44;102472.36;;;18.99;43.97
49063;BME280;34876;51.464;-0.150;2023-05-02T05:58:14;102481.78;;;18.52;45.15
49063;BME280;34876;51.464;-0.150;2023-05-02T06:00:42;102485.39;;;18.29;45.68
49063;BME280;34876;51.464;-0.150;2023-05-02T06:03:11;102485.38;;;18.51;45.18
49063;BME280;34876;51.464;-0.150;2023-05-02T06:05:41;102492.33;;;18.67;44.83
49063;BME280;34876;51.464;-0.150;2023-05-02T06:08:09;102489.75;;;17.85;46.75
49063;BME280;34876;51.464;-0.150;2023-05-02T06:10:38;102493.25;;;18.08;46.33
49063;BME280;34876;51.464;-0.150;2023-05-02T06:13:08;102493.50;;;18.73;44.65
49063;BME280;34876;51.464;-0.150;2023-05-02T06:15:37;102493.06;;;17.72;47.29
49063;BME280;34876;51.464;-0.150;2023-05-02T06:18:07;102492.94;;;17.68;47.59
49063;BME280;34876;51.464;-0.150;2023-05-02T06:20:38;102493.05;;;18.38;45.53
49063;BME280;34876;51.464;-0.150;2023-05-02T06:23:07;102496.19;;;17.90;47.25
49063;BME280;34876;51.464;-0.150;2023-05-02T06:25:37;102499.45;;;17.85;46.91
49063;BME280;34876;51.464;-0.150;2023-05-02T06:28:11;102500.82;;;17.73;47.24
49063;BME280;34876;51.464;-0.150;2023-05-02T06:30:40;102506.68;;;17.89;47.59
49063;BME280;34876;51.464;-0.150;2023-05-02T06:33:09;102508.51;;;18.34;45.59
49063;BME280;34876;51.464;-0.150;2023-05-02T06:35:39;102509.40;;;18.17;46.54
49063;BME280;34876;51.464;-0.150;2023-05-02T06:38:08;102509.92;;;17.20;49.16
49063;BME280;34876;51.464;-0.150;2023-05-02T06:40:37;102514.27;;;18.28;45.81
49063;BME280;34876;51.464;-0.150;2023-05-02T06:43:06;102504.06;;;17.59;47.63
49063;BME280;34876;51.464;-0.150;2023-05-02T06:45:35;102507.95;;;17.62;47.41
49063;BME280;34876;51.464;-0.150;2023-05-02T06:48:05;102511.41;;;17.61;47.50
49063;BME280;34876;51.464;-0.150;2023-05-02T06:50:34;102517.17;;;17.63;47.45
49063;BME280;34876;51.464;-0.150;2023-05-02T06:53:04;102517.53;;;18.58;45.03
49063;BME280;34876;51.464;-0.150;2023-05-02T06:55:33;102522.88;;;18.62;45.09
49063;BME280;34876;51.464;-0.150;2023-05-02T06:58:02;102523.43;;;18.45;45.25
49063;BME280;34876;51.464;-0.150;2023-05-02T07:00:31;102521.75;;;18.82;44.35
49063;BME280;34876;51.464;-0.150;2023-05-02T07:02:59;102524.25;;;18.04;46.25
49063;BME280;34876;51.464;-0.150;2023-05-02T07:05:29;102526.61;;;18.58;44.90
49063;BME280;34876;51.464;-0.150;2023-05-02T07:07:58;102527.50;;;17.60;47.46
49063;BME280;34876;51.464;-0.150;2023-05-02T07:10:27;102530.37;;;18.43;45.31
49063;BME280;34876;51.464;-0.150;2023-05-02T07:12:56;102535.35;;;18.64;44.76
49063;BME280;34876;51.464;-0.150;2023-05-02T07:15:25;102535.30;;;18.85;44.17
49063;BME280;34876;51.464;-0.150;2023-05-02T07:17:55;102534.68;;;18.77;44.35
49063;BME280;34876;51.464;-0.150;2023-05-02T07:20:24;102538.78;;;18.96;43.89
49063;BME280;34876;51.464;-0.150;2023-05-02T07:22:53;102542.19;;;18.81;44.40
49063;BME280;34876;51.464;-0.150;2023-05-02T07:25:22;102541.16;;;18.60;44.68
49063;BME280;34876;51.464;-0.150;2023-05-02T07:27:51;102537.43;;;18.96;43.84
49063;BME280;34876;51.464;-0.150;2023-05-02T07:30:20;102539.49;;;18.74;44.38
49063;BME280;34876;51.464;-0.150;2023-05-02T07:32:49;102540.05;;;18.25;45.64
49063;BME280;34876;51.464;-0.150;2023-05-02T07:35:18;102541.11;;;17.61;47.56
49063;BME280;34876;51.464;-0.150;2023-05-02T07:37:47;102543.28;;;18.55;45.12
49063;BME280;34876;51.464;-0.150;2023-05-02T07:40:17;102544.32;;;18.33;46.17
49063;BME280;34876;51.464;-0.150;2023-05-02T07:42:46;102546.49;;;17.99;46.29
49063;BME280;34876;51.464;-0.150;2023-05-02T07:45:16;102553.08;;;18.43;45.24
49063;BME280;34876;51.464;-0.150;2023-05-02T07:47:45;102555.35;;;18.14;46.31
49063;BME280;34876;51.464;-0.150;2023-05-02T07:50:14;102554.45;;;18.77;44.35
49063;BME280;34876;51.464;-0.150;2023-05-02T07:52:44;102554.11;;;18.08;46.97
49063;BME280;34876;51.464;-0.150;2023-05-02T07:55:13;102553.82;;;18.72;44.45
49063;BME280;34876;51.464;-0.150;2023-05-02T07:57:42;102554.95;;;17.55;47.82
49063;BME280;34876;51.464;-0.150;2023-05-02T08:00:12;102554.57;;;18.47;45.08
49063;BME280;34876;51.464;-0.150;2023-05-02T08:02:41;102553.24;;;18.63;44.65
49063;BME280;34876;51.464;-0.150;2023-05-02T08:05:10;102556.14;;;18.69;44.46
49063;BME280;34876;51.464;-0.150;2023-05-02T08:07:39;102554.09;;;18.90;43.95
49063;BME280;34876;51.464;-0.150;2023-05-02T08:10:09;102554.05;;;18.95;44.14
49063;BME280;34876;51.464;-0.150;2023-05-02T08:12:38;102553.45;;;18.57;44.70
49063;BME280;34876;51.464;-0.150;2023-05-02T08:15:10;102556.50;;;18.74;44.30
49063;BME280;34876;51.464;-0.150;2023-05-02T08:17:40;102557.35;;;18.88;43.94
49063;BME280;34876;51.464;-0.150;2023-05-02T08:20:10;102561.36;;;18.49;44.90
49063;BME280;34876;51.464;-0.150;2023-05-02T08:22:39;102562.00;;;18.12;45.80
49063;BME280;34876;51.464;-0.150;2023-05-02T08:25:08;102562.56;;;18.40;45.14
49063;BME280;34876;51.464;-0.150;2023-05-02T08:27:38;102564.81;;;18.46;44.99
49063;BME280;34876;51.464;-0.150;2023-05-02T08:30:08;102565.15;;;18.35;45.15
49063;BME280;34876;51.464;-0.150;2023-05-02T08:32:37;102566.65;;;17.90;46.27
49063;BME280;34876;51.464;-0.150;2023-05-02T08:35:07;102566.16;;;18.37;45.13
49063;BME280;34876;51.464;-0.150;2023-05-02T08:37:37;102566.40;;;18.00;46.10
49063;BME280;34876;51.464;-0.150;2023-05-02T08:40:11;102566.24;;;17.68;46.79
49063;BME280;34876;51.464;-0.150;2023-05-02T08:42:42;102565.61;;;18.47;44.81
49063;BME280;34876;51.464;-0.150;2023-05-02T08:45:12;102572.57;;;18.11;45.70
49063;BME280;34876;51.464;-0.150;2023-05-02T08:47:42;102584.12;;;18.01;45.96
49063;BME280;34876;51.464;-0.150;2023-05-02T08:50:11;102586.72;;;18.31;45.22
49063;BME280;34876;51.464;-0.150;2023-05-02T08:52:40;102589.73;;;17.84;46.46
49063;BME280;34876;51.464;-0.150;2023-05-02T08:55:11;102595.94;;;18.48;44.77
49063;BME280;34876;51.464;-0.150;2023-05-02T08:57:40;102603.55;;;18.14;45.91
49063;BME280;34876;51.464;-0.150;2023-05-02T09:00:12;102607.47;;;17.58;46.92
49063;BME280;34876;51.464;-0.150;2023-05-02T09:02:50;102608.09;;;18.34;45.16
49063;BME280;34876;51.464;-0.150;2023-05-02T09:05:23;102612.58;;;18.18;45.35
49063;BME280;34876;51.464;-0.150;2023-05-02T09:07:53;102621.85;;;17.75;46.43
49063;BME280;34876;51.464;-0.150;2023-05-02T09:10:24;102624.56;;;17.44;47.17
49063;BME280;34876;51.464;-0.150;2023-05-02T09:12:55;102630.96;;;17.22;47.86
49063;BME280;34876;51.464;-0.150;2023-05-02T09:15:25;102627.72;;;17.80;46.49
49063;BME280;34876;51.464;-0.150;2023-05-02T09:17:54;102631.77;;;18.25;45.03
49063;BME280;34876;51.464;-0.150;2023-05-02T09:20:23;102628.02;;;18.51;44.59
49063;BME280;34876;51.464;-0.150;2023-05-02T09:22:53;102632.16;;;18.74;44.00
49063;BME280;34876;51.464;-0.150;2023-05-02T09:25:22;102633.17;;;18.85;43.69
49063;BME280;34876;51.464;-0.150;2023-05-02T09:27:52;102635.15;;;18.88;43.60
49063;BME280;34876;51.464;-0.150;2023-05-02T09:30:23;102642.66;;;18.92;43.44
49063;BME280;34876;51.464;-0.150;2023-05-02T09:32:53;102654.01;;;18.71;43.90
49063;BME280;34876;51.464;-0.150;2023-05-02T09:35:22;102653.27;;;18.77;43.78
49063;BME280;34876;51.464;-0.150;2023-05-02T09:37:52;102653.79;;;18.83;43.58
49063;BME280;34876;51.464;-0.150;2023-05-02T09:40:23;102655.12;;;18.65;43.81
49063;BME280;34876;51.464;-0.150;2023-05-02T09:42:53;102654.18;;;18.83;43.61
49063;BME280;34876;51.464;-0.150;2023-05-02T09:45:25;102656.31;;;18.87;43.47
49063;BME280;34876;51.464;-0.150;2023-05-02T09:47:54;102658.69;;;18.74;43.74
49063;BME280;34876;51.464;-0.150;2023-05-02T09:50:33;102661.84;;;18.78;43.68
49063;BME280;34876;51.464;-0.150;2023-05-02T09:53:04;102658.15;;;18.79;43.58
49063;BME280;34876;51.464;-0.150;2023-05-02T09:55:34;102666.30;;;18.76;43.21
49063;BME280;34876;51.464;-0.150;2023-05-02T09:58:03;102662.33;;;18.31;44.04
49063;BME280;34876;51.464;-0.150;2023-05-02T10:00:41;102654.98;;;18.76;43.56
49063;BME280;34876;51.464;-0.150;2023-05-02T10:03:15;102658.78;;;18.70;43.61
49063;BME280;34876;51.464;-0.150;2023-05-02T10:05:45;102658.96;;;18.68;43.65
49063;BME280;34876;51.464;-0.150;2023-05-02T10:08:15;102654.43;;;18.61;43.74
49063;BME280;34876;51.464;-0.150;2023-05-02T10:10:50;102649.47;;;18.83;43.26
49063;BME280;34876;51.464;-0.150;2023-05-02T10:13:21;102648.59;;;18.66;43.60
49063;BME280;34876;51.464;-0.150;2023-05-02T10:15:57;102647.31;;;19.00;42.86
49063;BME280;34876;51.464;-0.150;2023-05-02T10:18:28;102646.72;;;18.95;42.95
49063;BME280;34876;51.464;-0.150;2023-05-02T10:21:04;102646.90;;;19.11;42.60
49063;BME280;34876;51.464;-0.150;2023-05-02T10:23:34;102649.95;;;18.96;42.89
49063;BME280;34876;51.464;-0.150;2023-05-02T10:26:03;102649.01;;;18.43;44.07
49063;BME280;34876;51.464;-0.150;2023-05-02T10:28:33;102654.39;;;18.77;43.16
49063;BME280;34876;51.464;-0.150;2023-05-02T10:31:04;102653.25;;;18.96;42.74
49063;BME280;34876;51.464;-0.150;2023-05-02T10:33:34;102653.90;;;18.72;43.29
49063;BME280;34876;51.464;-0.150;2023-05-02T10:36:06;102668.84;;;18.46;42.24
49063;BME280;34876;51.464;-0.150;2023-05-02T10:38:35;102662.93;;;18.62;42.91
49063;BME280;34876;51.464;-0.150;2023-05-02T10:41:09;102657.62;;;18.74;43.04
49063;BME280;34876;51.464;-0.150;2023-05-02T10:43:44;102660.80;;;18.68;43.29
49063;BME280;34876;51.464;-0.150;2023-05-02T10:46:31;102666.06;;;18.94;42.67
49063;BME280;34876;51.464;-0.150;2023-05-02T10:49:03;102668.34;;;19.10;42.31
49063;BME280;34876;51.464;-0.150;2023-05-02T10:51:33;102671.17;;;18.62;42.97
49063;BME280;34876;51.464;-0.150;2023-05-02T10:54:20;102676.04;;;18.95;42.27
49063;BME280;34876;51.464;-0.150;2023-05-02T10:57:06;102672.15;;;18.86;42.78
49063;BME280;34876;51.464;-0.150;2023-05-02T10:59:37;102675.48;;;18.87;41.34
49063;BME280;34876;51.464;-0.150;2023-05-02T11:02:45;102684.11;;;19.04;42.30
49063;BME280;34876;51.464;-0.150;2023-05-02T11:05:16;102689.10;;;18.81;42.88
49063;BME280;34876;51.464;-0.150;2023-05-02T11:07:45;102686.26;;;19.13;42.08
49063;BME280;34876;51.464;-0.150;2023-05-02T11:10:25;102689.79;;;18.93;42.52
49063;BME280;34876;51.464;-0.150;2023-05-02T11:12:56;102686.53;;;19.09;42.12
49063;BME280;34876;51.464;-0.150;2023-05-02T11:15:57;102690.28;;;18.83;42.28
49063;BME280;34876;51.464;-0.150;2023-05-02T11:18:26;102691.02;;;18.37;43.53
49063;BME280;34876;51.464;-0.150;2023-05-02T11:21:26;102689.54;;;18.92;41.28
49063;BME280;34876;51.464;-0.150;2023-05-02T11:25:01;102688.54;;;19.12;42.05
49063;BME280;34876;51.464;-0.150;2023-05-02T11:27:38;102688.09;;;19.00;41.75
49063;BME280;34876;51.464;-0.150;2023-05-02T11:30:09;102683.91;;;19.09;41.97
49063;BME280;34876;51.464;-0.150;2023-05-02T11:33:13;102677.60;;;19.26;41.65
49063;BME280;34876;51.464;-0.150;2023-05-02T11:35:43;102677.80;;;18.39;41.38
49063;BME280;34876;51.464;-0.150;2023-05-02T11:38:14;102668.04;;;19.11;41.95
49063;BME280;34876;51.464;-0.150;2023-05-02T11:40:53;102666.95;;;19.15;40.82
49063;BME280;34876;51.464;-0.150;2023-05-02T11:43:23;102676.31;;;18.75;40.86
49063;BME280;34876;51.464;-0.150;2023-05-02T11:45:53;102676.27;;;18.97;41.73
49063;BME280;34876;51.464;-0.150;2023-05-02T11:48:23;102675.48;;;19.09;42.10
49063;BME280;34876;51.464;-0.150;2023-05-02T11:50:55;102680.06;;;19.39;41.40
49063;BME280;34876;51.464;-0.150;2023-05-02T11:53:26;102680.56;;;19.20;41.82
49063;BME280;34876;51.464;-0.150;2023-05-02T11:55:57;102690.39;;;18.97;40.62
49063;BME280;34876;51.464;-0.150;2023-05-02T11:58:28;102695.53;;;19.06;41.49
49063;BME280;34876;51.464;-0.150;2023-05-02T12:00:58;102692.67;;;19.24;41.58
49063;BME280;34876;51.464;-0.150;2023-05-02T12:03:29;102693.88;;;18.95;42.20
49063;BME280;34876;51.464;-0.150;2023-05-02T12:06:08;102700.33;;;19.11;41.63
49063;BME280;34876;51.464;-0.150;2023-05-02T12:08:39;102704.61;;;19.33;41.46
49063;BME280;34876;51.464;-0.150;2023-05-02T12:11:12;102703.64;;;19.05;41.98
49063;BME280;34876;51.464;-0.150;2023-05-02T12:13:44;102701.04;;;18.83;42.32
49063;BME280;34876;51.464;-0.150;2023-05-02T12:16:14;102703.77;;;19.29;41.20
49063;BME280;34876;51.464;-0.150;2023-05-02T12:18:44;102705.65;;;19.03;42.06
49063;BME280;34876;51.464;-0.150;2023-05-02T12:21:15;102707.55;;;19.22;41.70
49063;BME280;34876;51.464;-0.150;2023-05-02T12:23:44;102712.11;;;19.27;41.29
49063;BME280;34876;51.464;-0.150;2023-05-02T12:26:18;102711.69;;;19.12;40.59
49063;BME280;34876;51.464;-0.150;2023-05-02T12:28:48;102710.24;;;19.39;41.30
49063;BME280;34876;51.464;-0.150;2023-05-02T12:31:18;102708.90;;;19.30;41.56
49063;BME280;34876;51.464;-0.150;2023-05-02T12:33:48;102709.55;;;19.06;41.97
49063;BME280;34876;51.464;-0.150;2023-05-02T12:36:17;102716.71;;;19.25;41.65
49063;BME280;34876;51.464;-0.150;2023-05-02T12:38:47;102713.08;;;19.33;41.46
49063;BME280;34876;51.464;-0.150;2023-05-02T12:41:16;102713.49;;;19.20;41.26
49063;BME280;34876;51.464;-0.150;2023-05-02T12:43:46;102718.30;;;19.04;41.83
49063;BME280;34876;51.464;-0.150;2023-05-02T12:46:16;102716.41;;;19.16;41.75
49063;BME280;34876;51.464;-0.150;2023-05-02T12:48:45;102716.97;;;19.30;41.51
49063;BME280;34876;51.464;-0.150;2023-05-02T12:51:20;102716.39;;;18.96;42.25
49063;BME280;34876;51.464;-0.150;2023-05-02T12:53:49;102710.32;;;19.11;41.80
49063;BME280;34876;51.464;-0.150;2023-05-02T12:56:18;102716.10;;;18.92;42.27
49063;BME280;34876;51.464;-0.150;2023-05-02T12:58:47;102716.95;;;18.92;42.19
49063;BME280;34876;51.464;-0.150;2023-05-02T13:01:16;102714.82;;;18.92;42.33
49063;BME280;34876;51.464;-0.150;2023-05-02T13:03:45;102712.31;;;19.20;41.66
49063;BME280;34876;51.464;-0.150;2023-05-02T13:06:14;102715.94;;;19.00;42.06